Airports

 

 

Airport Name Latest METAR Visual Conditions
Atlantic City Int. (ACY) KACY 171854Z 26008G17KT 10SM FEW080 25/06 A2998 RMK AO2 SLP151 T02500056 VFR
Baltimore International Airport (BWI) KBWI 171854Z VRB03KT 10SM FEW250 26/06 A3001 RMK AO2 SLP159 T02610056 VFR
Washington National Airport (DCA) KDCA 171852Z VRB03KT 10SM FEW250 26/06 A3003 RMK AO2 SLP167 T02560061 VFR
Dulles International Airport (IAD) KIAD 171852Z 30010G18KT 10SM FEW250 25/05 A3003 RMK AO2 SLP168 T02500050 $ VFR
Norfolk International Airport (ORF) KORF 171851Z 29007KT 10SM CLR 28/06 A3000 RMK AO2 SLP159 T02780061 VFR
Raleigh International Airport (RDU) KRDU 171851Z 03008KT 360V070 10SM FEW065 FEW250 27/09 A3002 RMK AO2 SLP160 T02720089 VFR
Richmond International Airport (RIC) KRIC 171854Z 31009KT 10SM FEW085 FEW300 26/03 A3003 RMK AO2 SLP171 T02610033 VFR
Roanoke Regional Airport (ROA) KROA 171854Z VRB04KT 10SM CLR 27/08 A3007 RMK AO2 SLP172 T02670078 VFR